Time;durP1;ratioP1;P1;durP2;ratioP2;P2;SDS_P1;SDS_P2;PMS_P1;PMS_P2;Temp;Humidity;BMP_temperature;BMP_pressure;BME280_temperature;BME280_humidity;BME280_pressure;Samples;Min_cycle;Max_cycle;Signal;HPM_P1;HPM_P2
2021/12/27 00:01:02;;;;;;;16.00;11.13;;;;;;;-3.01;84.74;99957.31;5034378;28;20214;-68
2021/12/27 00:03:28;;;;;;;15.67;10.73;;;;;;;-3.00;84.35;99964.25;5037516;28;20758;-68
2021/12/27 00:05:55;;;;;;;15.40;9.83;;;;;;;-2.99;84.74;99961.63;5035962;28;20225;-68
2021/12/27 00:08:23;;;;;;;18.80;10.17;;;;;;;-2.98;84.48;99963.34;5033776;28;20210;-68
2021/12/27 00:10:49;;;;;;;18.10;11.00;;;;;;;-2.99;84.39;99955.56;5033902;28;20206;-68
2021/12/27 00:13:18;;;;;;;17.63;11.30;;;;;;;-2.99;84.44;99959.03;5036198;28;20229;-68
2021/12/27 00:15:45;;;;;;;15.83;10.13;;;;;;;-2.97;84.73;99964.19;5036694;28;20242;-68
2021/12/27 00:18:11;;;;;;;19.37;10.53;;;;;;;-2.97;85.06;99954.63;5033073;28;20240;-68
2021/12/27 00:20:38;;;;;;;16.73;10.87;;;;;;;-2.94;84.55;99945.91;5036762;28;20211;-68
2021/12/27 00:23:05;;;;;;;14.20;10.30;;;;;;;-2.95;84.99;99942.44;5038310;28;20590;-68
2021/12/27 00:25:31;;;;;;;16.03;10.17;;;;;;;-2.94;85.00;99941.56;5040223;28;20225;-68
2021/12/27 00:27:58;;;;;;;18.10;11.80;;;;;;;-2.93;85.06;99942.41;5036897;28;20202;-68
2021/12/27 00:30:26;;;;;;;12.83;9.87;;;;;;;-2.94;84.72;99928.53;5034626;28;20195;-68
2021/12/27 00:32:52;;;;;;;17.43;10.67;;;;;;;-2.93;84.95;99930.25;5037487;28;20213;-68
2021/12/27 00:35:19;;;;;;;15.83;10.83;;;;;;;-2.94;84.91;99920.72;5037572;28;20201;-68
2021/12/27 00:37:47;;;;;;;13.93;10.47;;;;;;;-2.92;85.32;99923.28;5036044;28;20220;-68
2021/12/27 00:40:15;;;;;;;12.63;9.87;;;;;;;-2.91;84.89;99904.16;5037704;28;20204;-68
2021/12/27 00:42:42;;;;;;;17.73;10.63;;;;;;;-2.90;84.88;99905.88;5038107;28;20216;-68
2021/12/27 00:45:10;;;;;;;16.23;10.67;;;;;;;-2.90;84.83;99906.75;5029739;28;20225;-68
2021/12/27 00:47:37;;;;;;;19.90;12.10;;;;;;;-2.89;84.88;99905.84;5030987;28;20209;-68
2021/12/27 00:50:06;;;;;;;18.53;11.30;;;;;;;-2.87;84.80;99903.22;5033274;28;20213;-68
2021/12/27 00:52:35;;;;;;;13.93;8.77;;;;;;;-2.88;84.87;99889.34;5034533;28;20205;-68
2021/12/27 00:55:03;;;;;;;18.00;10.97;;;;;;;-2.88;84.78;99894.56;5036433;28;20197;-69
2021/12/27 00:57:30;;;;;;;17.37;11.27;;;;;;;-2.87;85.00;99885.00;5031979;28;20596;-69
2021/12/27 00:59:56;;;;;;;16.23;11.87;;;;;;;-2.87;85.01;99888.44;5036663;28;20206;-69
2021/12/27 01:02:23;;;;;;;14.97;10.80;;;;;;;-2.84;85.37;99887.50;5038060;28;20523;-69
2021/12/27 01:04:51;;;;;;;15.17;9.93;;;;;;;-2.83;85.08;99891.81;5032324;28;20232;-69
2021/12/27 01:07:17;;;;;;;15.60;11.10;;;;;;;-2.82;85.25;99894.41;5035633;28;20222;-67
2021/12/27 01:09:57;;;;;;;16.17;11.30;;;;;;;-2.81;85.34;99901.31;5028497;28;21270;-68
2021/12/27 01:12:32;;;;;;;14.50;10.20;;;;;;;-2.80;85.09;99889.16;5033642;28;20562;-67
2021/12/27 01:15:12;;;;;;;16.17;9.80;;;;;;;-2.81;85.10;99896.13;5026523;28;20296;-68
2021/12/27 01:17:41;;;;;;;17.87;10.27;;;;;;;-2.81;84.99;99892.66;5028895;28;20224;-68
2021/12/27 01:20:13;;;;;;;14.00;9.57;;;;;;;-2.81;84.89;99892.66;5032986;28;20206;-69
2021/12/27 01:22:40;;;;;;;13.33;9.50;;;;;;;-2.83;85.19;99882.25;5029943;28;20253;-70
2021/12/27 01:25:09;;;;;;;17.03;10.57;;;;;;;-2.84;85.30;99880.53;5031906;28;20230;-68
2021/12/27 01:27:36;;;;;;;15.00;10.63;;;;;;;-2.83;85.47;99884.88;5026688;28;20288;-69
2021/12/27 01:30:06;;;;;;;15.03;10.43;;;;;;;-2.83;85.27;99878.78;5029286;28;20679;-68
2021/12/27 01:32:34;;;;;;;17.57;10.23;;;;;;;-2.83;85.02;99877.06;5034933;28;20202;-68
2021/12/27 01:35:01;;;;;;;15.07;10.10;;;;;;;-2.82;85.44;99885.72;5030841;28;20228;-70
2021/12/27 01:37:29;;;;;;;14.50;10.03;;;;;;;-2.80;84.95;99882.19;5029135;28;20225;-69
2021/12/27 01:39:55;;;;;;;14.83;10.87;;;;;;;-2.77;84.89;99872.59;5033533;28;20722;-70
2021/12/27 01:42:22;;;;;;;15.10;10.37;;;;;;;-2.76;85.02;99874.31;5035787;28;20585;-69
2021/12/27 01:44:49;;;;;;;14.90;10.23;;;;;;;-2.76;85.43;99874.31;5035323;28;20228;-69
2021/12/27 01:47:16;;;;;;;18.70;10.73;;;;;;;-2.76;85.36;99877.78;5028754;28;20225;-69
2021/12/27 01:49:43;;;;;;;17.57;10.70;;;;;;;-2.76;84.94;99871.72;5031235;28;20201;-70
2021/12/27 01:52:09;;;;;;;14.90;10.57;;;;;;;-2.75;85.38;99870.81;5035245;28;20573;-69
2021/12/27 01:54:37;;;;;;;16.30;10.37;;;;;;;-2.75;84.93;99873.44;5028547;28;20664;-69
2021/12/27 01:57:05;;;;;;;17.50;10.20;;;;;;;-2.75;85.39;99869.06;5034180;28;20225;-69
2021/12/27 01:59:32;;;;;;;15.83;10.50;;;;;;;-2.77;85.43;99864.78;5031545;28;20222;-69
2021/12/27 02:01:58;;;;;;;13.63;10.10;;;;;;;-2.76;85.08;99866.50;5034189;28;20208;-69
2021/12/27 02:04:26;;;;;;;16.43;11.27;;;;;;;-2.76;85.55;99859.53;5033107;28;20233;-69
2021/12/27 02:06:52;;;;;;;14.80;10.17;;;;;;;-2.74;85.68;99860.38;5035550;28;20604;-69
2021/12/27 02:09:22;;;;;;;13.97;10.00;;;;;;;-2.74;85.44;99849.09;5027375;28;20209;-69
2021/12/27 02:11:50;;;;;;;14.57;9.87;;;;;;;-2.76;85.62;99845.66;5025696;28;20555;-69
2021/12/27 02:14:17;;;;;;;15.90;10.83;;;;;;;-2.76;85.45;99843.06;5028564;28;20209;-69
2021/12/27 02:16:44;;;;;;;18.10;10.30;;;;;;;-2.74;85.25;99843.88;5036352;22;20234;-72
2021/12/27 02:19:11;;;;;;;14.80;10.17;;;;;;;-2.76;85.53;99851.72;5009823;28;20490;-69
2021/12/27 02:21:39;;;;;;;15.70;10.67;;;;;;;-2.73;85.47;99850.81;5012384;28;20203;-71
2021/12/27 02:24:08;;;;;;;11.00;8.20;;;;;;;-2.72;85.79;99849.91;5013459;28;20227;-71
2021/12/27 02:26:34;;;;;;;15.20;10.53;;;;;;;-2.75;85.63;99845.63;5006986;28;20219;-71
2021/12/27 02:29:01;;;;;;;13.20;9.10;;;;;;;-2.74;85.33;99847.34;5007723;28;20245;-71
2021/12/27 02:31:28;;;;;;;14.53;9.47;;;;;;;-2.73;85.32;99845.59;5009694;28;20614;-71
2021/12/27 02:33:54;;;;;;;13.80;9.57;;;;;;;-2.72;85.71;99842.09;5018722;28;20214;-71
2021/12/27 02:36:24;;;;;;;16.27;10.33;;;;;;;-2.74;85.14;99847.34;5009404;28;20238;-71
2021/12/27 02:38:52;;;;;;;15.87;10.60;;;;;;;-2.73;85.53;99840.38;5018648;28;20199;-71
2021/12/27 02:41:19;;;;;;;16.53;10.47;;;;;;;-2.73;85.61;99836.03;5013468;28;20206;-71
2021/12/27 02:43:45;;;;;;;16.90;10.07;;;;;;;-2.72;85.44;99842.09;5010668;28;20570;-70
2021/12/27 02:46:14;;;;;;;16.13;9.77;;;;;;;-2.71;85.76;99833.38;5009750;28;20223;-71
2021/12/27 02:48:44;;;;;;;12.50;9.40;;;;;;;-2.70;85.24;99824.69;5018416;28;20209;-70
2021/12/27 02:51:11;;;;;;;11.47;8.97;;;;;;;-2.70;85.85;99830.75;5012412;28;20231;-70
2021/12/27 02:53:38;;;;;;;16.70;9.90;;;;;;;-2.71;85.41;99826.44;5009393;28;20202;-70
2021/12/27 02:56:08;;;;;;;15.93;10.07;;;;;;;-2.69;85.42;99826.41;5013218;28;20229;-71
2021/12/27 02:58:35;;;;;;;11.77;8.43;;;;;;;-2.69;85.69;99821.19;5006567;28;20550;-71
2021/12/27 03:01:05;;;;;;;16.93;9.93;;;;;;;-2.69;85.40;99827.25;5010438;28;20207;-71
2021/12/27 03:03:32;;;;;;;14.00;9.53;;;;;;;-2.71;85.68;99818.63;5008567;28;20602;-71
2021/12/27 03:05:58;;;;;;;15.47;9.67;;;;;;;-2.70;85.90;99820.31;5007666;28;20700;-71
2021/12/27 03:08:26;;;;;;;16.73;9.77;;;;;;;-2.70;85.78;99815.13;5005325;28;20218;-72
2021/12/27 03:10:56;;;;;;;14.23;9.90;;;;;;;-2.69;85.75;99814.22;5014874;28;20199;-70
2021/12/27 03:13:26;;;;;;;17.17;10.20;;;;;;;-2.68;85.70;99815.03;5013368;28;20206;-72
2021/12/27 03:15:55;;;;;;;15.00;9.63;;;;;;;-2.67;85.76;99812.41;5006541;28;20207;-72
2021/12/27 03:18:23;;;;;;;17.33;9.47;;;;;;;-2.68;85.55;99813.31;5007066;28;20207;-72
2021/12/27 03:20:50;;;;;;;13.97;9.67;;;;;;;-2.70;85.63;99809.91;5009915;28;20207;-72
2021/12/27 03:23:17;;;;;;;13.83;9.20;;;;;;;-2.68;85.57;99810.69;5007904;28;20292;-72
2021/12/27 03:25:43;;;;;;;16.13;9.83;;;;;;;-2.68;85.53;99797.66;5012401;28;20230;-72
2021/12/27 03:28:10;;;;;;;14.30;8.70;;;;;;;-2.68;85.49;99804.63;5013818;28;20204;-72
2021/12/27 03:30:38;;;;;;;14.93;9.30;;;;;;;-2.68;85.57;99802.03;5012606;28;20236;-72
2021/12/27 03:33:06;;;;;;;12.60;9.10;;;;;;;-2.69;85.44;99806.41;5010823;28;20211;-72
2021/12/27 03:35:37;;;;;;;15.57;9.20;;;;;;;-2.67;85.85;99799.38;5003466;28;20679;-72
2021/12/27 03:38:07;;;;;;;14.20;9.17;;;;;;;-2.66;86.13;99801.09;5010409;28;20254;-72
2021/12/27 03:40:34;;;;;;;15.57;10.10;;;;;;;-2.65;85.67;99807.16;5001755;28;20680;-72
2021/12/27 03:43:00;;;;;;;15.33;10.03;;;;;;;-2.63;86.14;99801.03;4995489;28;20203;-72
2021/12/27 03:45:32;;;;;;;17.47;10.27;;;;;;;-2.60;85.92;99805.31;5006729;28;20226;-72
2021/12/27 03:48:00;;;;;;;13.17;9.33;;;;;;;-2.58;86.18;99793.97;5000487;28;20227;-72
2021/12/27 03:50:27;;;;;;;13.07;8.97;;;;;;;-2.58;86.05;99795.72;5003707;28;20207;-71
2021/12/27 03:52:56;;;;;;;12.43;9.50;;;;;;;-2.56;85.96;99791.31;5002401;28;20219;-71
2021/12/27 03:55:23;;;;;;;15.80;9.13;;;;;;;-2.56;86.10;99784.38;5002394;28;20262;-71
2021/12/27 03:57:53;;;;;;;14.47;9.53;;;;;;;-2.57;86.21;99777.44;4995297;28;20235;-71
2021/12/27 04:00:43;;;;;;;16.43;9.43;;;;;;;-2.57;86.08;99784.41;5007691;28;20214;-69
2021/12/27 04:03:11;;;;;;;14.40;9.70;;;;;;;-2.56;86.18;99786.97;5009513;28;20207;-71
2021/12/27 04:05:38;;;;;;;13.27;9.27;;;;;;;-2.56;86.13;99778.28;5009051;28;20722;-71
2021/12/27 04:08:09;;;;;;;13.00;9.20;;;;;;;-2.55;86.42;99778.25;5011964;28;20238;-71
2021/12/27 04:10:36;;;;;;;13.63;9.90;;;;;;;-2.54;86.16;99774.75;5008721;28;20237;-72
2021/12/27 04:13:03;;;;;;;14.50;9.60;;;;;;;-2.54;86.16;99776.50;5011600;28;20223;-71
2021/12/27 04:15:30;;;;;;;16.77;10.30;;;;;;;-2.54;86.46;99773.91;4998298;28;20928;-71
2021/12/27 04:17:56;;;;;;;16.63;10.77;;;;;;;-2.54;86.37;99772.16;4996236;28;20630;-71
2021/12/27 04:20:24;;;;;;;17.83;11.50;;;;;;;-2.52;86.26;99772.13;4995976;28;20218;-70
2021/12/27 04:22:51;;;;;;;12.70;9.40;;;;;;;-2.52;86.52;99765.16;5002328;28;20210;-69
2021/12/27 04:25:19;;;;;;;13.93;9.43;;;;;;;-2.50;86.23;99765.09;5009794;28;20223;-72
2021/12/27 04:27:47;;;;;;;14.43;9.40;;;;;;;-2.50;86.41;99762.47;4993456;28;20223;-72
2021/12/27 04:30:13;;;;;;;15.37;10.93;;;;;;;-2.48;86.50;99768.50;5002722;28;20211;-72
2021/12/27 04:32:40;;;;;;;17.00;9.63;;;;;;;-2.46;86.70;99756.31;5007662;28;20212;-72
2021/12/27 04:35:08;;;;;;;15.50;10.20;;;;;;;-2.45;86.80;99744.97;5009427;28;20221;-73
2021/12/27 04:37:36;;;;;;;17.30;10.07;;;;;;;-2.42;87.10;99751.88;4997712;28;20755;-72
2021/12/27 04:40:06;;;;;;;17.47;11.37;;;;;;;-2.43;86.51;99750.16;5011120;28;20218;-72
2021/12/27 04:42:33;;;;;;;16.07;9.93;;;;;;;-2.43;87.19;99748.41;5010210;28;20225;-72
2021/12/27 04:45:00;;;;;;;21.57;11.57;;;;;;;-2.42;86.94;99747.53;4994441;28;20231;-73
2021/12/27 04:47:27;;;;;;;16.50;10.33;;;;;;;-2.42;86.89;99731.88;5009483;28;20235;-72
2021/12/27 04:49:54;;;;;;;15.30;10.63;;;;;;;-2.40;87.17;99735.31;4995439;28;20218;-72
2021/12/27 04:52:20;;;;;;;15.00;10.93;;;;;;;-2.37;87.53;99729.16;5001780;28;20215;-73
2021/12/27 04:54:48;;;;;;;14.97;10.40;;;;;;;-2.37;86.92;99730.00;4995953;28;20200;-72
2021/12/27 04:57:15;;;;;;;19.57;11.50;;;;;;;-2.33;86.97;99730.81;5000897;28;20233;-72
2021/12/27 04:59:41;;;;;;;20.30;10.97;;;;;;;-2.33;87.39;99721.19;4993679;28;20314;-72
2021/12/27 05:02:08;;;;;;;18.93;10.57;;;;;;;-2.32;87.84;99725.50;5006511;28;20215;-72
2021/12/27 05:04:35;;;;;;;16.93;10.53;;;;;;;-2.29;87.65;99721.97;4998867;28;20211;-72
2021/12/27 05:07:02;;;;;;;19.70;10.93;;;;;;;-2.28;87.28;99723.69;5002165;28;20305;-73
2021/12/27 05:09:28;;;;;;;19.80;11.53;;;;;;;-2.26;87.44;99714.94;5010683;28;20213;-73
2021/12/27 05:11:56;;;;;;;13.53;10.30;;;;;;;-2.25;87.74;99716.66;4996000;28;20583;-72
2021/12/27 05:14:23;;;;;;;15.70;11.40;;;;;;;-2.24;87.52;99723.56;4990942;28;20219;-72
2021/12/27 05:16:49;;;;;;;15.97;10.77;;;;;;;-2.23;87.80;99716.59;4998899;28;20314;-72
2021/12/27 05:19:16;;;;;;;17.37;10.43;;;;;;;-2.22;87.67;99721.78;4996724;28;20292;-72
2021/12/27 05:21:42;;;;;;;15.40;9.67;;;;;;;-2.24;87.41;99715.75;5001492;28;20215;-72
2021/12/27 05:24:09;;;;;;;16.27;10.17;;;;;;;-2.23;87.99;99714.84;5009100;28;20200;-72
2021/12/27 05:26:35;;;;;;;17.50;10.20;;;;;;;-2.24;87.57;99713.16;5008740;28;20235;-70
2021/12/27 05:29:03;;;;;;;16.33;10.87;;;;;;;-2.24;87.74;99702.72;5015021;28;20958;-70
2021/12/27 05:31:30;;;;;;;16.80;11.13;;;;;;;-2.22;87.81;99706.13;5013350;28;20202;-71
2021/12/27 05:33:57;;;;;;;18.53;12.23;;;;;;;-2.21;87.60;99700.03;5004842;28;20673;-71
2021/12/27 05:36:23;;;;;;;15.73;11.43;;;;;;;-2.19;88.03;99708.69;5017591;28;20620;-70
2021/12/27 05:38:50;;;;;;;19.20;11.33;;;;;;;-2.18;87.88;99710.38;5006459;28;20214;-72
2021/12/27 05:41:16;;;;;;;19.07;10.90;;;;;;;-2.16;88.04;99708.59;4998894;28;20668;-71
2021/12/27 05:43:43;;;;;;;18.23;11.60;;;;;;;-2.14;87.86;99706.78;4996368;28;20206;-70
2021/12/27 05:46:11;;;;;;;18.57;10.97;;;;;;;-2.13;87.96;99703.28;5001065;28;20241;-71
2021/12/27 05:48:38;;;;;;;16.53;11.57;;;;;;;-2.11;88.30;99704.09;5009845;28;20203;-71
2021/12/27 05:51:04;;;;;;;16.63;11.43;;;;;;;-2.12;87.76;99704.97;5008340;28;20305;-70
2021/12/27 05:53:31;;;;;;;15.83;10.93;;;;;;;-2.09;87.87;99688.41;4992124;28;20244;-71
2021/12/27 05:55:57;;;;;;;16.07;11.67;;;;;;;-2.08;88.01;99699.69;5006399;28;20221;-71
2021/12/27 05:58:25;;;;;;;17.10;11.83;;;;;;;-2.10;87.87;99692.75;5001996;28;20204;-70
2021/12/27 06:00:51;;;;;;;17.10;11.63;;;;;;;-2.07;87.85;99688.34;5010143;28;20211;-71
2021/12/27 06:03:20;;;;;;;16.80;11.17;;;;;;;-2.08;88.41;99689.25;5009717;28;20207;-71
2021/12/27 06:05:47;;;;;;;18.23;11.73;;;;;;;-2.08;88.43;99694.47;4989867;28;20309;-71
2021/12/27 06:08:13;;;;;;;21.17;11.43;;;;;;;-2.10;87.99;99682.31;4996778;28;20680;-72
2021/12/27 06:10:40;;;;;;;16.50;11.43;;;;;;;-2.08;88.28;99676.22;4992392;28;20210;-71
2021/12/27 06:13:06;;;;;;;16.27;11.73;;;;;;;-2.06;88.55;99682.25;4997009;28;20211;-72
2021/12/27 06:15:33;;;;;;;17.73;11.03;;;;;;;-2.06;87.98;99684.84;4992533;28;20672;-72
2021/12/27 06:18:00;;;;;;;16.20;11.73;;;;;;;-2.05;88.04;99689.19;5007860;28;20234;-69
2021/12/27 06:20:28;;;;;;;17.27;12.03;;;;;;;-2.05;88.30;99684.81;5007927;28;20290;-71
2021/12/27 06:22:58;;;;;;;15.93;12.03;;;;;;;-2.03;88.68;99682.16;4993529;28;20662;-71
2021/12/27 06:25:26;;;;;;;21.27;13.03;;;;;;;-2.02;88.82;99679.53;5007496;28;20233;-71
2021/12/27 06:27:52;;;;;;;17.83;11.87;;;;;;;-2.01;88.83;99680.38;5002814;28;20219;-71
2021/12/27 06:30:20;;;;;;;19.00;11.93;;;;;;;-2.01;88.65;99677.75;5009446;28;20211;-71
2021/12/27 06:32:48;;;;;;;17.37;12.10;;;;;;;-2.00;88.71;99672.50;5006557;28;20258;-72
2021/12/27 06:35:15;;;;;;;16.67;12.00;;;;;;;-1.98;88.40;99670.72;5001078;28;20214;-71
2021/12/27 06:37:45;;;;;;;20.17;11.93;;;;;;;-1.97;88.55;99672.41;5007557;28;20226;-71
2021/12/27 06:40:13;;;;;;;18.93;12.23;;;;;;;-1.95;88.75;99668.00;5009618;28;20707;-71
2021/12/27 06:42:40;;;;;;;20.30;12.23;;;;;;;-1.95;89.06;99670.59;4995497;28;20208;-71
2021/12/27 06:45:07;;;;;;;17.80;12.20;;;;;;;-1.93;88.80;99675.78;5013915;28;20210;-72
2021/12/27 06:47:33;;;;;;;22.17;13.70;;;;;;;-1.93;88.51;99671.41;4999579;28;20729;-71
2021/12/27 06:50:00;;;;;;;16.70;11.87;;;;;;;-1.93;88.93;99670.56;5010755;28;20695;-71
2021/12/27 06:52:27;;;;;;;16.73;12.10;;;;;;;-1.91;88.72;99667.00;5007932;28;20213;-71
2021/12/27 06:54:55;;;;;;;18.77;11.50;;;;;;;-1.91;88.60;99664.41;4996441;28;20238;-71
2021/12/27 06:57:21;;;;;;;20.63;12.93;;;;;;;-1.92;88.69;99662.69;4997597;28;20223;-72
2021/12/27 06:59:48;;;;;;;15.80;11.37;;;;;;;-1.91;88.69;99671.38;4995071;28;20685;-71
2021/12/27 07:02:15;;;;;;;16.63;12.17;;;;;;;-1.90;88.65;99670.47;5013265;28;20217;-72
2021/12/27 07:04:42;;;;;;;20.07;11.80;;;;;;;-1.89;88.54;99666.97;5012458;28;20672;-72
2021/12/27 07:07:08;;;;;;;19.90;12.73;;;;;;;-1.89;88.88;99659.16;4996962;28;20732;-72
2021/12/27 07:09:35;;;;;;;20.27;12.40;;;;;;;-1.89;88.82;99653.94;5003869;28;20679;-72
2021/12/27 07:12:03;;;;;;;17.27;11.83;;;;;;;-1.89;89.15;99654.78;4998239;28;20221;-71
2021/12/27 07:14:30;;;;;;;20.40;13.13;;;;;;;-1.89;88.78;99657.38;5003827;28;20222;-72
2021/12/27 07:16:56;;;;;;;23.77;13.57;;;;;;;-1.86;89.06;99665.13;4997107;28;20269;-72
2021/12/27 07:19:23;;;;;;;18.67;12.90;;;;;;;-1.86;88.80;99659.06;5002707;28;20216;-72
2021/12/27 07:21:49;;;;;;;18.73;12.90;;;;;;;-1.85;89.27;99666.00;5003523;28;20580;-72
2021/12/27 07:24:16;;;;;;;20.00;13.40;;;;;;;-1.83;89.39;99661.59;4995204;28;20203;-71
2021/12/27 07:26:43;;;;;;;18.47;12.87;;;;;;;-1.81;89.13;99667.63;5001298;28;20700;-73
2021/12/27 07:29:10;;;;;;;22.80;13.37;;;;;;;-1.79;89.40;99668.41;5006506;28;20214;-72
2021/12/27 07:31:37;;;;;;;23.20;13.37;;;;;;;-1.78;89.28;99668.38;4993158;28;20211;-73
2021/12/27 07:34:03;;;;;;;18.57;13.10;;;;;;;-1.77;89.41;99672.69;4996749;28;20207;-72
2021/12/27 07:36:31;;;;;;;19.37;13.70;;;;;;;-1.78;89.01;99670.97;5009865;28;20234;-72
2021/12/27 07:39:00;;;;;;;23.73;13.77;;;;;;;-1.76;89.11;99673.53;5010876;28;20199;-73
2021/12/27 07:41:27;;;;;;;19.33;13.23;;;;;;;-1.75;89.39;99677.88;5011254;28;20206;-72
2021/12/27 07:43:55;;;;;;;24.77;14.33;;;;;;;-1.72;89.17;99682.16;5010263;28;20209;-72
2021/12/27 07:46:23;;;;;;;18.33;13.10;;;;;;;-1.72;89.57;99680.41;5007213;28;20239;-71
2021/12/27 07:48:50;;;;;;;24.47;15.40;;;;;;;-1.72;89.40;99676.94;5015816;28;20218;-70
2021/12/27 07:51:17;;;;;;;20.60;14.00;;;;;;;-1.72;89.42;99662.13;5012652;28;20202;-71
2021/12/27 07:53:44;;;;;;;20.47;13.40;;;;;;;-1.72;89.21;99663.88;5010038;28;20941;-70
2021/12/27 07:56:10;;;;;;;22.07;14.20;;;;;;;-1.71;89.65;99669.06;5017060;28;20272;-71
2021/12/27 07:58:37;;;;;;;20.53;13.40;;;;;;;-1.69;89.48;99669.88;5009456;28;20204;-73
2021/12/27 08:01:04;;;;;;;22.23;13.10;;;;;;;-1.69;89.21;99664.66;5018497;28;20214;-73
2021/12/27 08:03:32;;;;;;;21.00;13.67;;;;;;;-1.66;89.71;99666.31;5008362;28;20579;-70
2021/12/27 08:05:59;;;;;;;21.70;13.77;;;;;;;-1.66;89.44;99669.78;5005037;28;20226;-70
2021/12/27 08:08:25;;;;;;;24.60;14.10;;;;;;;-1.67;89.36;99660.25;5010788;28;20407;-71
2021/12/27 08:10:52;;;;;;;22.00;13.57;;;;;;;-1.67;89.62;99655.03;5004876;28;20219;-69
2021/12/27 08:13:18;;;;;;;21.23;14.73;;;;;;;-1.67;89.76;99662.84;5005935;28;20217;-71
2021/12/27 08:15:45;;;;;;;24.50;14.43;;;;;;;-1.65;89.50;99661.06;5009827;28;20210;-72
2021/12/27 08:18:11;;;;;;;23.63;14.30;;;;;;;-1.63;89.61;99661.00;5007134;28;20700;-72
2021/12/27 08:20:39;;;;;;;16.83;11.33;;;;;;;-1.60;89.81;99659.13;5009531;28;20209;-72
2021/12/27 08:23:06;;;;;;;20.97;13.57;;;;;;;-1.58;89.69;99664.31;5009128;28;20221;-71
2021/12/27 08:25:32;;;;;;;21.63;13.73;;;;;;;-1.57;89.79;99661.66;5011227;28;20206;-73
2021/12/27 08:28:01;;;;;;;21.20;13.37;;;;;;;-1.56;89.74;99658.16;5014921;28;20231;-73
2021/12/27 08:30:28;;;;;;;21.97;14.90;;;;;;;-1.52;89.82;99657.16;5010732;28;20560;-76
2021/12/27 08:32:56;;;;;;;21.70;14.60;;;;;;;-1.50;90.17;99649.28;5004914;28;20211;-70
2021/12/27 08:35:23;;;;;;;24.17;15.73;;;;;;;-1.48;89.98;99644.88;5013382;28;20541;-72
2021/12/27 08:37:51;;;;;;;22.87;14.73;;;;;;;-1.44;89.80;99649.97;5008909;28;20229;-71
2021/12/27 08:40:18;;;;;;;26.53;16.30;;;;;;;-1.42;90.23;99639.44;5011782;28;20207;-72
2021/12/27 08:42:44;;;;;;;25.43;15.67;;;;;;;-1.40;90.25;99651.56;5011100;28;20207;-71
2021/12/27 08:45:12;;;;;;;25.57;15.10;;;;;;;-1.37;90.09;99648.00;5008898;28;20199;-71
2021/12/27 08:47:39;;;;;;;23.07;15.40;;;;;;;-1.34;90.56;99649.66;5007740;28;20238;-71
2021/12/27 08:50:08;;;;;;;24.40;14.87;;;;;;;-1.31;90.19;99646.97;5013757;28;20194;-73
2021/12/27 08:52:36;;;;;;;20.90;14.47;;;;;;;-1.29;90.50;99639.94;5013369;28;20203;-72
2021/12/27 08:55:05;;;;;;;25.97;16.10;;;;;;;-1.25;90.55;99638.91;5005736;28;20668;-73
2021/12/27 08:57:33;;;;;;;24.17;15.07;;;;;;;-1.24;90.52;99635.41;5008311;28;20223;-71
2021/12/27 08:59:59;;;;;;;24.90;15.50;;;;;;;-1.22;90.56;99646.66;5008944;28;20215;-70
2021/12/27 09:02:26;;;;;;;24.50;15.47;;;;;;;-1.22;90.60;99641.44;5008425;28;20579;-72
2021/12/27 09:04:54;;;;;;;24.97;15.30;;;;;;;-1.21;90.62;99637.94;5015506;28;20194;-71
2021/12/27 09:07:21;;;;;;;26.33;16.53;;;;;;;-1.20;90.29;99635.28;5001383;28;20228;-72
2021/12/27 09:09:47;;;;;;;26.00;15.30;;;;;;;-1.20;90.33;99640.50;5015081;28;20202;-72
2021/12/27 09:12:15;;;;;;;24.73;15.23;;;;;;;-1.16;90.58;99638.66;5009276;28;20213;-73
2021/12/27 09:14:42;;;;;;;24.33;16.23;;;;;;;-1.14;90.73;99634.22;5006580;28;20210;-73
2021/12/27 09:17:08;;;;;;;27.37;15.80;;;;;;;-1.12;90.83;99638.50;5007389;28;20235;-72
2021/12/27 09:19:35;;;;;;;25.33;16.17;;;;;;;-1.08;91.15;99639.28;5004093;28;20210;-72
2021/12/27 09:22:02;;;;;;;30.23;17.33;;;;;;;-1.05;90.88;99641.75;5009050;28;20207;-72
2021/12/27 09:24:31;;;;;;;29.20;16.93;;;;;;;-1.04;90.80;99640.84;5012696;28;20203;-73
2021/12/27 09:26:57;;;;;;;27.67;15.40;;;;;;;-1.02;90.71;99633.81;5010018;28;20234;-72
2021/12/27 09:29:25;;;;;;;25.97;16.40;;;;;;;-1.01;91.05;99632.94;5011327;28;20211;-73
2021/12/27 09:31:52;;;;;;;29.27;17.30;;;;;;;-0.98;90.87;99631.97;5009780;28;20214;-72
2021/12/27 09:34:19;;;;;;;23.70;15.90;;;;;;;-0.96;90.65;99628.41;5003684;28;20214;-72
2021/12/27 09:36:46;;;;;;;27.30;17.23;;;;;;;-0.93;91.06;99625.69;5014036;28;20234;-72
2021/12/27 09:39:13;;;;;;;25.87;16.37;;;;;;;-0.90;90.79;99630.84;5002658;28;20522;-71
2021/12/27 09:41:40;;;;;;;25.87;16.37;;;;;;;-0.87;90.74;99628.09;5000421;28;20217;-74
2021/12/27 09:44:06;;;;;;;27.33;16.80;;;;;;;-0.84;90.90;99629.75;5001096;28;20210;-72
2021/12/27 09:46:34;;;;;;;26.53;17.30;;;;;;;-0.80;90.85;99626.13;4996447;28;20235;-71
2021/12/27 09:49:05;;;;;;;26.47;16.90;;;;;;;-0.77;90.64;99631.28;5004910;28;20661;-72
2021/12/27 09:51:34;;;;;;;31.37;18.13;;;;;;;-0.75;91.13;99624.22;5000246;28;20669;-72
2021/12/27 09:54:00;;;;;;;27.27;17.07;;;;;;;-0.72;91.08;99616.28;4997965;28;20301;-72
2021/12/27 09:56:27;;;;;;;26.37;16.30;;;;;;;-0.71;90.84;99623.19;5007945;28;20226;-71
2021/12/27 09:58:54;;;;;;;28.50;16.47;;;;;;;-0.68;91.08;99623.09;4998427;28;20207;-71
2021/12/27 10:01:20;;;;;;;28.63;17.67;;;;;;;-0.66;91.05;99620.44;5004924;28;20245;-71
2021/12/27 10:03:52;;;;;;;29.57;16.07;;;;;;;-0.62;91.23;99622.06;5009864;28;20214;-75
2021/12/27 10:06:20;;;;;;;28.17;16.17;;;;;;;-0.63;91.11;99620.34;5004146;28;20274;-71
2021/12/27 10:08:49;;;;;;;30.27;17.50;;;;;;;-0.62;91.00;99617.69;5005209;28;20206;-71
2021/12/27 10:11:18;;;;;;;30.43;18.07;;;;;;;-0.62;91.06;99617.69;5007476;28;20204;-71
2021/12/27 10:14:06;;;;;;;29.33;17.83;;;;;;;-0.60;90.94;99617.63;5005769;28;20658;-70
2021/12/27 10:16:37;;;;;;;26.13;16.20;;;;;;;-0.57;91.24;99613.16;4996009;28;20334;-71
2021/12/27 10:19:07;;;;;;;26.83;17.10;;;;;;;-0.56;90.93;99608.78;5004486;28;20203;-72
2021/12/27 10:21:34;;;;;;;26.27;16.93;;;;;;;-0.56;90.81;99614.84;5008186;28;20593;-71
2021/12/27 10:24:06;;;;;;;28.73;17.40;;;;;;;-0.54;90.82;99599.13;5004344;28;20202;-71
2021/12/27 10:26:33;;;;;;;28.37;17.03;;;;;;;-0.53;90.99;99604.25;5007581;28;20230;-72
2021/12/27 10:29:08;;;;;;;28.50;16.73;;;;;;;-0.51;90.99;99588.53;5014988;28;20210;-71
2021/12/27 10:31:57;;;;;;;26.80;17.40;;;;;;;-0.48;91.11;99591.03;5007134;28;20584;-73
2021/12/27 10:34:28;;;;;;;28.63;16.90;;;;;;;-0.46;91.18;99582.22;5005908;28;20206;-72
2021/12/27 10:37:01;;;;;;;28.30;17.13;;;;;;;-0.43;91.33;99584.75;5008028;28;20223;-73
2021/12/27 10:39:30;;;;;;;29.53;17.53;;;;;;;-0.39;91.26;99588.97;5013395;28;20203;-73
2021/12/27 10:42:07;;;;;;;28.30;18.37;;;;;;;-0.35;91.25;99590.53;5010301;28;20261;-72
2021/12/27 10:44:35;;;;;;;27.47;16.77;;;;;;;-0.31;91.15;99583.44;5006101;28;20302;-71
2021/12/27 10:47:02;;;;;;;26.90;17.47;;;;;;;-0.26;91.42;99571.06;5011192;28;20653;-74
2021/12/27 10:49:44;;;;;;;32.77;17.80;;;;;;;-0.20;91.47;99568.22;5009292;28;20593;-71
2021/12/27 10:52:11;;;;;;;28.27;17.23;;;;;;;-0.17;91.50;99565.47;5010619;28;20678;-71
2021/12/27 10:54:38;;;;;;;26.37;16.83;;;;;;;-0.14;91.43;99556.66;5008557;28;20203;-71
2021/12/27 10:57:05;;;;;;;31.23;17.17;;;;;;;-0.10;91.56;99553.88;5006942;28;20800;-72
2021/12/27 10:59:32;;;;;;;28.43;17.80;;;;;;;-0.06;91.86;99552.84;5007944;28;20222;-71
2021/12/27 11:02:08;;;;;;;32.43;18.93;;;;;;;-0.01;91.58;99550.06;5010922;28;20218;-72
2021/12/27 11:04:36;;;;;;;29.90;18.60;;;;;;;0.05;91.82;99551.59;5008843;28;20253;-73
2021/12/27 11:07:03;;;;;;;26.83;17.20;;;;;;;0.07;91.60;99550.63;5008283;28;20241;-71
2021/12/27 11:09:31;;;;;;;29.33;18.53;;;;;;;0.11;91.88;99561.81;5011319;28;20199;-72
2021/12/27 11:11:58;;;;;;;23.53;17.07;;;;;;;0.14;91.88;99554.72;5009688;28;20214;-73
2021/12/27 11:14:25;;;;;;;24.43;16.57;;;;;;;0.16;91.75;99554.66;5007243;28;20215;-78
2021/12/27 11:16:52;;;;;;;29.87;17.13;;;;;;;0.20;92.02;99551.00;5011180;28;20239;-77
2021/12/27 11:19:19;;;;;;;21.83;17.17;;;;;;;0.24;91.91;99557.81;5006836;28;20203;-72
2021/12/27 11:21:49;;;;;;;27.47;17.43;;;;;;;0.27;91.67;99557.72;5010446;28;20211;-71